FDX4218 PHNL-PHTO
Flight info
| Callsign | FDX4218 |
|---|---|
| Flight time | 0h 39m |
| Altitude | 25000 |
| Route | MKK5 PULPS V21 PUMIC V15 ITO |
| Aircraft | DH8D/M-VGDW/C |
Departure
| Time | 2026-04-15 13:13 |
|---|---|
| Airport | Daniel K. Inouye International Airport (PHNL) |
Arrival
| Time | 2026-04-15 13:52 |
|---|---|
| Airport | Hilo International Airport (PHTO) |
| Time | Latitude | Longitude | Altitude | Speed | Heading |
|---|---|---|---|---|---|
| 2026-04-15 13:08 | 21.31665 | -157.91876 | 23 ft | 0 kts | 333° |
| 2026-04-15 13:09 | 21.31666 | -157.91876 | 23 ft | 1 kts | 333° |
| 2026-04-15 13:10 | 21.31720 | -157.91942 | 23 ft | 3 kts | 252° |
| 2026-04-15 13:10 | 21.31661 | -157.92040 | 23 ft | 27 kts | 231° |
| 2026-04-15 13:10 | 21.31579 | -157.92152 | 23 ft | 17 kts | 232° |
| 2026-04-15 13:10 | 21.31519 | -157.92237 | 23 ft | 13 kts | 233° |
| 2026-04-15 13:11 | 21.31460 | -157.92322 | 23 ft | 14 kts | 233° |
| 2026-04-15 13:11 | 21.31399 | -157.92408 | 23 ft | 14 kts | 233° |
| 2026-04-15 13:11 | 21.31338 | -157.92494 | 23 ft | 15 kts | 232° |
| 2026-04-15 13:11 | 21.31289 | -157.92565 | 23 ft | 5 kts | 238° |
| 2026-04-15 13:12 | 21.31300 | -157.92618 | 23 ft | 11 kts | 316° |
| 2026-04-15 13:12 | 21.31363 | -157.92677 | 23 ft | 13 kts | 330° |
| 2026-04-15 13:12 | 21.31443 | -157.92643 | 23 ft | 15 kts | 48° |
| 2026-04-15 13:12 | 21.31736 | -157.92229 | 23 ft | 153 kts | 52° |
| 2026-04-15 13:13 | 21.32521 | -157.91120 | 1197 ft | 196 kts | 56° |
| 2026-04-15 13:13 | 21.33096 | -157.89595 | 2229 ft | 246 kts | 76° |
| 2026-04-15 13:13 | 21.33067 | -157.87797 | 2804 ft | 240 kts | 104° |
| 2026-04-15 13:13 | 21.32671 | -157.86683 | 3322 ft | 243 kts | 114° |
| 2026-04-15 13:14 | 21.32036 | -157.85370 | 3938 ft | 245 kts | 118° |
| 2026-04-15 13:14 | 21.31212 | -157.83756 | 4691 ft | 247 kts | 118° |
| 2026-04-15 13:14 | 21.30434 | -157.82103 | 5443 ft | 250 kts | 116° |
| 2026-04-15 13:14 | 21.29723 | -157.80386 | 6197 ft | 253 kts | 113° |
| 2026-04-15 13:15 | 21.29076 | -157.78601 | 6957 ft | 256 kts | 110° |
| 2026-04-15 13:15 | 21.28489 | -157.76780 | 7712 ft | 260 kts | 109° |
| 2026-04-15 13:15 | 21.27941 | -157.74919 | 8466 ft | 263 kts | 108° |
| 2026-04-15 13:15 | 21.27421 | -157.73026 | 9218 ft | 267 kts | 107° |
| 2026-04-15 13:16 | 21.26917 | -157.71094 | 9971 ft | 270 kts | 107° |
| 2026-04-15 13:16 | 21.26424 | -157.69135 | 10723 ft | 274 kts | 108° |
| 2026-04-15 13:16 | 21.25934 | -157.67145 | 11476 ft | 278 kts | 108° |
| 2026-04-15 13:16 | 21.25436 | -157.65096 | 12238 ft | 283 kts | 109° |
| 2026-04-15 13:17 | 21.24938 | -157.63038 | 12991 ft | 287 kts | 109° |
| 2026-04-15 13:17 | 21.24432 | -157.60949 | 13742 ft | 292 kts | 108° |
| 2026-04-15 13:17 | 21.23919 | -157.58820 | 14494 ft | 297 kts | 108° |
| 2026-04-15 13:17 | 21.23399 | -157.56653 | 15249 ft | 302 kts | 108° |
| 2026-04-15 13:18 | 21.22864 | -157.54423 | 16012 ft | 308 kts | 108° |
| 2026-04-15 13:18 | 21.22327 | -157.52184 | 16765 ft | 313 kts | 108° |
| 2026-04-15 13:18 | 21.21790 | -157.49905 | 17517 ft | 318 kts | 108° |
| 2026-04-15 13:18 | 21.21244 | -157.47583 | 18270 ft | 324 kts | 108° |
| 2026-04-15 13:19 | 21.20873 | -157.46026 | 18769 ft | 327 kts | 108° |
| 2026-04-15 13:19 | 21.20672 | -157.45188 | 19036 ft | 329 kts | 108° |
| 2026-04-15 13:19 | 21.20099 | -157.42798 | 19791 ft | 333 kts | 108° |
| 2026-04-15 13:19 | 21.19510 | -157.40353 | 20554 ft | 336 kts | 108° |
| 2026-04-15 13:20 | 21.18915 | -157.37880 | 21318 ft | 339 kts | 109° |
| 2026-04-15 13:20 | 21.18322 | -157.35420 | 22072 ft | 343 kts | 109° |
| 2026-04-15 13:20 | 21.17722 | -157.32930 | 22826 ft | 346 kts | 109° |
| 2026-04-15 13:20 | 21.17117 | -157.30423 | 23578 ft | 349 kts | 109° |
| 2026-04-15 13:21 | 21.16509 | -157.27898 | 24329 ft | 351 kts | 109° |
| 2026-04-15 13:21 | 21.15901 | -157.25367 | 25013 ft | 353 kts | 109° |
| 2026-04-15 13:21 | 21.15261 | -157.22740 | 24943 ft | 370 kts | 109° |
| 2026-04-15 13:21 | 21.15043 | -157.21847 | 25010 ft | 370 kts | 109° |
| 2026-04-15 13:22 | 21.14286 | -157.19171 | 25047 ft | 372 kts | 114° |
| 2026-04-15 13:22 | 21.13342 | -157.16596 | 25034 ft | 372 kts | 118° |
| 2026-04-15 13:22 | 21.12267 | -157.14073 | 25025 ft | 372 kts | 121° |
| 2026-04-15 13:22 | 21.11112 | -157.11598 | 25021 ft | 371 kts | 123° |
| 2026-04-15 13:23 | 21.09908 | -157.09158 | 25020 ft | 371 kts | 124° |
| 2026-04-15 13:23 | 21.08674 | -157.06737 | 25020 ft | 370 kts | 124° |
| 2026-04-15 13:23 | 21.08254 | -157.05923 | 25020 ft | 370 kts | 124° |
| 2026-04-15 13:23 | 21.06999 | -157.03515 | 25021 ft | 370 kts | 124° |
| 2026-04-15 13:24 | 21.05737 | -157.01113 | 25022 ft | 370 kts | 125° |
| 2026-04-15 13:24 | 21.04455 | -156.98678 | 25025 ft | 370 kts | 125° |
| 2026-04-15 13:24 | 21.03996 | -156.97808 | 25026 ft | 370 kts | 125° |
| 2026-04-15 13:24 | 21.02731 | -156.95405 | 25028 ft | 371 kts | 125° |
| 2026-04-15 13:25 | 21.01468 | -156.93003 | 25032 ft | 371 kts | 125° |
| 2026-04-15 13:25 | 21.00205 | -156.90597 | 25033 ft | 371 kts | 124° |
| 2026-04-15 13:25 | 20.98945 | -156.88191 | 25034 ft | 371 kts | 124° |
| 2026-04-15 13:25 | 20.97685 | -156.85781 | 25035 ft | 371 kts | 124° |
| 2026-04-15 13:26 | 20.96410 | -156.83341 | 25036 ft | 371 kts | 124° |
| 2026-04-15 13:26 | 20.95152 | -156.80933 | 25037 ft | 371 kts | 124° |
| 2026-04-15 13:26 | 20.93895 | -156.78527 | 25037 ft | 371 kts | 124° |
| 2026-04-15 13:26 | 20.92638 | -156.76122 | 25036 ft | 371 kts | 124° |
| 2026-04-15 13:27 | 20.91378 | -156.73713 | 25034 ft | 371 kts | 124° |
| 2026-04-15 13:27 | 20.90103 | -156.71276 | 25032 ft | 370 kts | 124° |
| 2026-04-15 13:27 | 20.88843 | -156.68870 | 25029 ft | 370 kts | 124° |
| 2026-04-15 13:27 | 20.87582 | -156.66462 | 25025 ft | 370 kts | 124° |
| 2026-04-15 13:28 | 20.86316 | -156.64048 | 25023 ft | 378 kts | 124° |
| 2026-04-15 13:28 | 20.85004 | -156.61558 | 25021 ft | 390 kts | 124° |
| 2026-04-15 13:28 | 20.83659 | -156.59007 | 25018 ft | 398 kts | 124° |
| 2026-04-15 13:28 | 20.82288 | -156.56404 | 25013 ft | 403 kts | 124° |
| 2026-04-15 13:29 | 20.80909 | -156.53784 | 25010 ft | 406 kts | 124° |
| 2026-04-15 13:29 | 20.79526 | -156.51151 | 25007 ft | 408 kts | 124° |
| 2026-04-15 13:29 | 20.78134 | -156.48501 | 25005 ft | 409 kts | 124° |
| 2026-04-15 13:29 | 20.76742 | -156.45849 | 25005 ft | 410 kts | 124° |
| 2026-04-15 13:30 | 20.75359 | -156.43214 | 25004 ft | 410 kts | 124° |
| 2026-04-15 13:30 | 20.73949 | -156.40531 | 25001 ft | 410 kts | 124° |
| 2026-04-15 13:30 | 20.72570 | -156.37906 | 24999 ft | 410 kts | 124° |
| 2026-04-15 13:30 | 20.71158 | -156.35221 | 24999 ft | 410 kts | 124° |
| 2026-04-15 13:31 | 20.69762 | -156.32567 | 24998 ft | 410 kts | 124° |
| 2026-04-15 13:31 | 20.68361 | -156.29907 | 24998 ft | 410 kts | 123° |
| 2026-04-15 13:31 | 20.66975 | -156.27278 | 24998 ft | 410 kts | 123° |
| 2026-04-15 13:31 | 20.65558 | -156.24590 | 24998 ft | 410 kts | 123° |
| 2026-04-15 13:32 | 20.64160 | -156.21941 | 24998 ft | 410 kts | 123° |
| 2026-04-15 13:32 | 20.63238 | -156.20191 | 24997 ft | 410 kts | 123° |
| 2026-04-15 13:32 | 20.62281 | -156.18354 | 24996 ft | 410 kts | 123° |
| 2026-04-15 13:32 | 20.60885 | -156.15692 | 24989 ft | 410 kts | 123° |
| 2026-04-15 13:33 | 20.59443 | -156.13025 | 24991 ft | 410 kts | 123° |
| 2026-04-15 13:33 | 20.58066 | -156.10360 | 24991 ft | 410 kts | 123° |
| 2026-04-15 13:33 | 20.57617 | -156.09491 | 24990 ft | 410 kts | 123° |
| 2026-04-15 13:33 | 20.56146 | -156.06708 | 25012 ft | 407 kts | 124° |
| 2026-04-15 13:34 | 20.54721 | -156.04049 | 25002 ft | 406 kts | 123° |
| 2026-04-15 13:34 | 20.53342 | -156.01428 | 25037 ft | 404 kts | 124° |
| 2026-04-15 13:34 | 20.51923 | -155.98793 | 25062 ft | 404 kts | 124° |
| 2026-04-15 13:34 | 20.50494 | -155.96201 | 25088 ft | 406 kts | 125° |
| 2026-04-15 13:35 | 20.49074 | -155.93591 | 25088 ft | 410 kts | 123° |
| 2026-04-15 13:35 | 20.47814 | -155.90841 | 25088 ft | 414 kts | 118° |
| 2026-04-15 13:35 | 20.46739 | -155.87979 | 25092 ft | 417 kts | 114° |
| 2026-04-15 13:35 | 20.45792 | -155.85053 | 25098 ft | 418 kts | 111° |
| 2026-04-15 13:36 | 20.44928 | -155.82081 | 25104 ft | 419 kts | 110° |
| 2026-04-15 13:36 | 20.44119 | -155.79088 | 25110 ft | 420 kts | 109° |
| 2026-04-15 13:36 | 20.43343 | -155.76093 | 25117 ft | 420 kts | 109° |
| 2026-04-15 13:36 | 20.42570 | -155.73040 | 25123 ft | 420 kts | 108° |
| 2026-04-15 13:37 | 20.41812 | -155.70027 | 25130 ft | 420 kts | 108° |
| 2026-04-15 13:37 | 20.41053 | -155.67016 | 25136 ft | 420 kts | 108° |
| 2026-04-15 13:37 | 20.40287 | -155.64007 | 25142 ft | 420 kts | 109° |
| 2026-04-15 13:37 | 20.39512 | -155.61010 | 25149 ft | 420 kts | 109° |
| 2026-04-15 13:38 | 20.38704 | -155.58024 | 25155 ft | 419 kts | 110° |
| 2026-04-15 13:38 | 20.38140 | -155.56007 | 25159 ft | 419 kts | 110° |
| 2026-04-15 13:38 | 20.37292 | -155.53042 | 25166 ft | 419 kts | 110° |
| 2026-04-15 13:38 | 20.36428 | -155.50076 | 25175 ft | 418 kts | 111° |
| 2026-04-15 13:39 | 20.35542 | -155.47074 | 25179 ft | 418 kts | 111° |
| 2026-04-15 13:39 | 20.34665 | -155.44122 | 25180 ft | 418 kts | 111° |
| 2026-04-15 13:39 | 20.33783 | -155.41167 | 25180 ft | 419 kts | 111° |
| 2026-04-15 13:39 | 20.32898 | -155.38206 | 25179 ft | 419 kts | 111° |
| 2026-04-15 13:40 | 20.32018 | -155.35253 | 25177 ft | 419 kts | 111° |
| 2026-04-15 13:40 | 20.31138 | -155.32297 | 25174 ft | 418 kts | 112° |
| 2026-04-15 13:40 | 20.29826 | -155.29527 | 25168 ft | 410 kts | 129° |
| 2026-04-15 13:40 | 20.27919 | -155.27330 | 25171 ft | 401 kts | 144° |
| 2026-04-15 13:41 | 20.25648 | -155.25626 | 25172 ft | 396 kts | 154° |
| 2026-04-15 13:41 | 20.23210 | -155.24322 | 25169 ft | 392 kts | 161° |
| 2026-04-15 13:41 | 20.20672 | -155.23283 | 25167 ft | 390 kts | 165° |
| 2026-04-15 13:41 | 20.18119 | -155.22286 | 25163 ft | 391 kts | 164° |
| 2026-04-15 13:42 | 20.15580 | -155.21260 | 25160 ft | 391 kts | 163° |
| 2026-04-15 13:42 | 20.13014 | -155.20184 | 25157 ft | 392 kts | 162° |
| 2026-04-15 13:42 | 20.10485 | -155.19087 | 25152 ft | 392 kts | 162° |
| 2026-04-15 13:42 | 20.07967 | -155.17962 | 25147 ft | 393 kts | 161° |
| 2026-04-15 13:43 | 20.05459 | -155.16815 | 25141 ft | 393 kts | 161° |
| 2026-04-15 13:43 | 20.03015 | -155.15672 | 24985 ft | 359 kts | 160° |
| 2026-04-15 13:43 | 20.00832 | -155.14626 | 23941 ft | 328 kts | 160° |
| 2026-04-15 13:43 | 19.98874 | -155.13685 | 23221 ft | 296 kts | 160° |
| 2026-04-15 13:44 | 19.97140 | -155.12565 | 22464 ft | 295 kts | 142° |
| 2026-04-15 13:44 | 19.95922 | -155.10795 | 21712 ft | 301 kts | 120° |
| 2026-04-15 13:44 | 19.95070 | -155.08749 | 20974 ft | 300 kts | 118° |
| 2026-04-15 13:44 | 19.94205 | -155.06768 | 20235 ft | 297 kts | 119° |
| 2026-04-15 13:45 | 19.93305 | -155.04822 | 19493 ft | 294 kts | 120° |
| 2026-04-15 13:45 | 19.92365 | -155.02877 | 18735 ft | 291 kts | 121° |
| 2026-04-15 13:45 | 19.91409 | -155.00965 | 17977 ft | 287 kts | 121° |
| 2026-04-15 13:47 | 19.84844 | -154.88518 | 12759 ft | 292 kts | 121° |
| 2026-04-15 13:47 | 19.83813 | -154.86593 | 12007 ft | 298 kts | 121° |
| 2026-04-15 13:47 | 19.82792 | -154.84684 | 11255 ft | 294 kts | 121° |
| 2026-04-15 13:48 | 19.81537 | -154.83047 | 10502 ft | 289 kts | 140° |
| 2026-04-15 13:48 | 19.79793 | -154.82059 | 9760 ft | 286 kts | 163° |
| 2026-04-15 13:48 | 19.77875 | -154.81973 | 9685 ft | 269 kts | 188° |
| 2026-04-15 13:48 | 19.76018 | -154.82460 | 9650 ft | 278 kts | 196° |
| 2026-04-15 13:49 | 19.74184 | -154.83079 | 9648 ft | 278 kts | 197° |
| 2026-04-15 13:49 | 19.72386 | -154.83835 | 9634 ft | 280 kts | 210° |
| 2026-04-15 13:49 | 19.70976 | -154.85247 | 9640 ft | 282 kts | 234° |
| 2026-04-15 13:49 | 19.70202 | -154.87161 | 9569 ft | 286 kts | 256° |
| 2026-04-15 13:50 | 19.70114 | -154.89289 | 8731 ft | 281 kts | 279° |
| 2026-04-15 13:50 | 19.70773 | -154.91183 | 7807 ft | 257 kts | 298° |
| 2026-04-15 13:50 | 19.71700 | -154.92724 | 6563 ft | 245 kts | 303° |
| 2026-04-15 13:50 | 19.72338 | -154.94425 | 5291 ft | 253 kts | 282° |
| 2026-04-15 13:51 | 19.72511 | -154.96303 | 4061 ft | 262 kts | 271° |
| 2026-04-15 13:51 | 19.72433 | -154.98259 | 2939 ft | 258 kts | 263° |
| 2026-04-15 13:51 | 19.72202 | -154.99975 | 1898 ft | 225 kts | 262° |
| 2026-04-15 13:51 | 19.72064 | -155.01593 | 731 ft | 213 kts | 268° |
| 2026-04-15 13:52 | 19.72130 | -155.03083 | 119 ft | 189 kts | 272° |
| 2026-04-15 13:52 | 19.72139 | -155.04258 | 48 ft | 99 kts | 268° |
| 2026-04-15 13:52 | 19.72134 | -155.04550 | 48 ft | 16 kts | 269° |
| 2026-04-15 13:52 | 19.72132 | -155.04699 | 48 ft | 12 kts | 269° |
| 2026-04-15 13:53 | 19.72131 | -155.04825 | 48 ft | 23 kts | 269° |
| 2026-04-15 13:53 | 19.72058 | -155.04927 | 48 ft | 20 kts | 179° |
| 2026-04-15 13:53 | 19.72036 | -155.04927 | 48 ft | 0 kts | 189° |
| 2026-04-15 13:53 | 19.72018 | -155.04950 | 48 ft | 19 kts | 247° |
| 2026-04-15 13:54 | 19.72012 | -155.05092 | 48 ft | 12 kts | 270° |
| 2026-04-15 13:54 | 19.71983 | -155.05269 | 48 ft | 21 kts | 209° |
| 2026-04-15 13:54 | 19.71903 | -155.05351 | 48 ft | 1 kts | 185° |
| 2026-04-15 13:54 | 19.71882 | -155.05352 | 48 ft | 0 kts | 182° |